McGrath, AK

8:13 AM AKDT on October 23, 2014 (GMT -0800)
Nikolai AP, Nikolai, AK | Change Station
CLOSE
Current Station
Airport
Location: Nikolai AP, Nikolai, AK,
Elevation: 413 ft
Nearby Weather Stations

Elev 413 ft 63.02 °N, 154.36 °W | Updated 4 minutes ago

Overcast
Overcast
25 °F
Feels Like 25 °F
N
0
Wind Variable Wind from North

Today
High -- | Low -- °F
--% Chance of Precip.
Yesterday
High -- | Low -- °F
Precip. -- in
9:30 AM 6:36 PM
Waning Crescent, 0% visible
Pressure 29.84 in
Visibility 10.0 miles
Clouds Few 2600 ft
Overcast 3500 ft
Dew Point 21 °F
Humidity 86%
Rainfall 0.00 in
Snow Depth Not available.
UV 0 out of 12
Pollen Not available.
Air Quality Not available.
Flu Activity Sporadic
SPECI PAFS 231609Z AUTO 00000KT 10SM FEW026 OVC035 M04/M06 A2984 RMK AO2 TSNO OVC V BKN $

More Conditions Fewer Conditions

Pressure 29.84 in
Visibility 10.0 miles
Clouds Few 2600 ft
Overcast 3500 ft
Dew Point 21 °F
Humidity 86%
Rainfall 0.00 in
Snow Depth Not available.
UV 0 out of 12
Pollen Not available.
Air Quality Not available.
Flu Activity Sporadic
SPECI PAFS 231609Z AUTO 00000KT 10SM FEW026 OVC035 M04/M06 A2984 RMK AO2 TSNO OVC V BKN $

More Conditions Fewer Conditions

10-Day Weather Forecast

Almanac

Astronomy

Oct. 23, 2014 Rise Set
Actual Time 9:30 AM AKDT 6:36 PM AKDT
Civil Twilight 8:42 AM AKDT 7:24 PM AKDT
Nautical Twilight 7:48 AM AKDT 8:18 PM AKDT
Astronomical Twilight 6:55 AM AKDT 9:10 PM AKDT
Moon 9:18 AM AKDT 6:41 PM AKDT
Length of Visible Light 10h 42m
Length of Day
9h 06m
Tomorrow will be 6m 5s shorter.
Waning Crescent, 0% of the Moon is Illuminated
Today
Waning Crescent
Oct 23
New
Oct 30
First Quarter
Nov 6
Full
Nov 14
Last Quarter

Today's Extremes

State Highs State Lows

Community

WunderPhotos

Upload Photos

1,764,290 photos uploaded!

WunderBlogs® & News

By Dr. Jeff Masters
Director of Meteorology, Weather Underground
By Kari Strenfel
Meteorologist, Weather Underground
By Christopher C. Burt
Weather Historian, Weather Underground
October 23, 2014
October 23, 2014
October 23, 2014

Nearby

Snow Depth

Station Depth Elevation
Susitna Valley High 0 in 375 ft
Point Mackenzie 1 in 200 ft
Indian Pass 7 in 2300 ft
Summit Creek 3 in 1400 ft
Turnagain Pass 8 in 1880 ft

Earthquake Activity

City Distance Mag. Time & Date
No recent earthquake activity has been reported nearby.
Minimum magnitude displayed is 2.5.

Coastal Water Temperatures

Place Temperature
No Stations Reporting

Nearby Weather Stations